Time;durP1;ratioP1;P1;durP2;ratioP2;P2;SDS_P1;SDS_P2;PMS_P1;PMS_P2;Temp;Humidity;BMP_temperature;BMP_pressure;BME280_temperature;BME280_humidity;BME280_pressure;Samples;Min_cycle;Max_cycle;Signal;HPM_P1;HPM_P2
2022/03/21 00:01:10;;;;;;;25.43;23.33;;;;;;;22.26;22.84;96753.31;6181692;28;102819;-43
2022/03/21 00:04:12;;;;;;;24.80;22.60;;;;;;;22.26;23.00;96753.31;6159923;28;103952;-43
2022/03/21 00:07:14;;;;;;;24.73;22.57;;;;;;;22.26;22.88;96748.00;6179686;28;102826;-43
2022/03/21 00:10:16;;;;;;;23.93;21.90;;;;;;;22.25;22.89;96749.06;6176848;28;103121;-43
2022/03/21 00:13:19;;;;;;;23.47;21.37;;;;;;;22.24;23.11;96744.78;6176215;28;103377;-43
2022/03/21 00:16:21;;;;;;;23.93;21.83;;;;;;;22.24;23.08;96752.78;6177709;28;103728;-43
2022/03/21 00:19:23;;;;;;;21.90;19.97;;;;;;;22.25;22.98;96749.06;6180711;28;102750;-43
2022/03/21 00:22:25;;;;;;;22.53;20.60;;;;;;;22.25;23.06;96745.59;6177025;28;105262;-43
2022/03/21 00:25:27;;;;;;;21.97;20.17;;;;;;;22.23;23.02;96737.88;6198768;28;102698;-43
2022/03/21 00:28:28;;;;;;;21.53;19.53;;;;;;;22.23;23.11;96743.19;6190435;28;102776;-43
2022/03/21 00:31:30;;;;;;;22.03;20.07;;;;;;;22.23;22.99;96743.19;6173521;28;103083;-43
2022/03/21 00:34:32;;;;;;;22.20;20.03;;;;;;;22.22;22.88;96736.25;6177163;28;103751;-45
2022/03/21 00:37:38;;;;;;;21.50;19.50;;;;;;;22.22;22.90;96738.94;6178160;28;102828;-43
2022/03/21 00:40:41;;;;;;;19.87;18.27;;;;;;;22.20;22.56;96733.06;6180796;28;102960;-44
2022/03/21 00:43:43;;;;;;;20.20;18.43;;;;;;;22.21;22.90;96735.47;6183038;28;103779;-43
2022/03/21 00:46:45;;;;;;;19.70;18.10;;;;;;;22.21;22.90;96729.34;6179352;28;103153;-44
2022/03/21 00:49:48;;;;;;;19.60;18.00;;;;;;;22.18;22.99;96729.84;6164615;28;103031;-44
2022/03/21 00:52:53;;;;;;;18.40;16.90;;;;;;;22.19;22.95;96731.47;6164902;28;103160;-43
2022/03/21 00:55:55;;;;;;;17.90;16.40;;;;;;;22.19;23.08;96728.78;6165813;28;103288;-43
2022/03/21 00:58:57;;;;;;;18.37;16.70;;;;;;;22.19;22.99;96728.78;6179835;28;103090;-43
2022/03/21 01:01:59;;;;;;;17.73;16.27;;;;;;;22.18;22.87;96719.22;6180204;28;103385;-43
2022/03/21 01:05:01;;;;;;;17.80;15.93;;;;;;;22.18;23.08;96720.00;6157805;28;103481;-42
2022/03/21 01:08:04;;;;;;;16.97;15.57;;;;;;;22.15;23.01;96711.72;6180160;28;102770;-43
2022/03/21 01:11:05;;;;;;;16.30;14.80;;;;;;;22.21;23.02;96721.34;6181660;28;103030;-43
2022/03/21 01:14:07;;;;;;;14.97;13.70;;;;;;;22.19;23.01;96710.97;6175172;28;103195;-44
2022/03/21 01:17:09;;;;;;;15.00;13.73;;;;;;;22.19;22.75;96708.28;6173261;28;103083;-43
2022/03/21 01:20:13;;;;;;;14.50;13.27;;;;;;;22.21;22.92;96697.38;6179525;28;103181;-43
2022/03/21 01:23:15;;;;;;;14.23;13.03;;;;;;;22.17;22.90;96701.59;6180559;28;102674;-44
2022/03/21 01:26:16;;;;;;;13.40;12.10;;;;;;;22.18;23.13;96705.91;6174450;28;103225;-43
2022/03/21 01:29:18;;;;;;;12.83;11.73;;;;;;;22.20;22.77;96701.13;6177814;28;102802;-43
2022/03/21 01:32:20;;;;;;;12.77;11.70;;;;;;;22.15;22.83;96693.09;6176326;28;103212;-45
2022/03/21 01:35:22;;;;;;;12.10;11.10;;;;;;;22.15;22.95;96690.41;6178578;28;103491;-43
2022/03/21 01:38:24;;;;;;;11.97;11.07;;;;;;;22.14;22.82;96691.47;6174376;28;103050;-43
2022/03/21 01:41:26;;;;;;;12.57;11.40;;;;;;;22.12;22.59;96686.41;6179115;28;103489;-44
2022/03/21 01:44:27;;;;;;;13.73;12.57;;;;;;;22.12;22.62;96677.63;6177838;28;103770;-44
2022/03/21 01:47:29;;;;;;;12.87;11.87;;;;;;;22.13;23.01;96679.22;6180471;28;102956;-43
2022/03/21 01:50:31;;;;;;;13.43;12.23;;;;;;;22.13;22.76;96681.91;6175589;28;104713;-43
2022/03/21 01:56:56;;;;;;;13.30;12.10;;;;;;;22.13;22.94;96680.03;6170454;28;102728;-44
2022/03/21 01:59:57;;;;;;;13.70;12.50;;;;;;;22.12;22.88;96678.44;6178172;28;103021;-44
2022/03/21 02:02:59;;;;;;;12.20;11.20;;;;;;;22.12;22.61;96674.97;6177490;28;103361;-43
2022/03/21 02:06:01;;;;;;;13.17;12.00;;;;;;;22.11;23.00;96676.03;6181020;28;103002;-44
2022/03/21 02:09:08;;;;;;;14.00;12.60;;;;;;;22.11;22.68;96678.69;6182993;28;102807;-44
2022/03/21 02:12:10;;;;;;;13.30;12.20;;;;;;;22.11;22.72;96670.72;6176601;28;103314;-43
2022/03/21 02:15:12;;;;;;;12.87;11.87;;;;;;;22.04;22.89;96670.94;6180980;28;102837;-43
2022/03/21 02:18:17;;;;;;;14.30;13.00;;;;;;;22.06;22.65;96670.69;6182299;28;103249;-43
2022/03/21 02:21:27;;;;;;;13.70;12.47;;;;;;;22.09;22.59;96675.50;6174649;28;103793;-43
2022/03/21 02:24:39;;;;;;;11.70;10.80;;;;;;;22.08;22.81;96677.34;6191884;28;104162;-43
2022/03/21 02:27:43;;;;;;;12.83;11.80;;;;;;;22.07;22.92;96669.63;6181093;28;103472;-43
2022/03/21 02:30:47;;;;;;;12.20;11.20;;;;;;;21.89;22.76;96645.03;6183809;28;102865;-43
2022/03/21 02:33:49;;;;;;;11.87;10.87;;;;;;;22.05;22.88;96677.88;6170523;28;102812;-44
2022/03/21 02:36:59;;;;;;;13.03;11.90;;;;;;;22.08;22.87;96684.53;6182296;28;103111;-43
2022/03/21 02:40:02;;;;;;;12.77;11.67;;;;;;;22.08;22.96;96693.31;6183197;28;102761;-43
2022/03/21 02:43:04;;;;;;;12.40;11.20;;;;;;;22.07;22.99;96690.94;6173747;28;104973;-43
2022/03/21 02:46:06;;;;;;;11.63;10.60;;;;;;;22.06;23.07;96692.78;6182578;28;103097;-43
2022/03/21 02:49:08;;;;;;;12.00;11.00;;;;;;;22.08;22.88;96695.19;6181135;28;103787;-44
2022/03/21 02:52:12;;;;;;;11.97;10.83;;;;;;;22.07;22.76;96699.72;6180701;28;102784;-43
2022/03/21 02:55:14;;;;;;;11.33;10.43;;;;;;;22.02;22.75;96693.53;6173731;28;103348;-43
2022/03/21 02:58:15;;;;;;;11.03;10.13;;;;;;;22.06;23.03;96697.31;6188639;28;103952;-44
2022/03/21 03:01:18;;;;;;;12.50;11.40;;;;;;;22.06;22.89;96689.31;6176971;28;102791;-45
2022/03/21 03:04:21;;;;;;;11.00;10.10;;;;;;;22.05;22.72;96695.72;6186625;28;103188;-43
2022/03/21 03:07:23;;;;;;;11.03;10.17;;;;;;;22.05;22.97;96696.50;6177064;28;102852;-43
2022/03/21 03:10:24;;;;;;;11.00;10.00;;;;;;;22.05;22.74;96699.16;6181057;28;103586;-43
2022/03/21 03:13:26;;;;;;;10.60;9.60;;;;;;;22.05;22.83;96687.72;6187556;28;102737;-43
2022/03/21 03:16:28;;;;;;;10.57;9.67;;;;;;;22.06;22.52;96697.31;6174731;28;104557;-43
2022/03/21 03:19:30;;;;;;;11.23;10.33;;;;;;;22.05;22.53;96693.84;6181143;28;103026;-44
2022/03/21 03:22:32;;;;;;;10.30;9.50;;;;;;;22.05;22.70;96693.84;6179540;28;104491;-44
2022/03/21 03:25:35;;;;;;;10.87;9.97;;;;;;;22.04;22.83;96697.53;6180218;28;102983;-43
2022/03/21 03:28:38;;;;;;;10.57;9.57;;;;;;;22.05;22.55;96691.19;6176251;28;103895;-43
2022/03/21 03:31:46;;;;;;;10.80;9.90;;;;;;;22.00;22.83;96685.78;6179732;28;103105;-43
2022/03/21 03:34:48;;;;;;;10.53;9.63;;;;;;;22.07;22.64;96690.94;6178892;28;103116;-43
2022/03/21 03:37:50;;;;;;;9.83;9.03;;;;;;;22.07;22.57;96688.25;6178666;28;102821;-45
2022/03/21 03:40:53;;;;;;;9.70;8.87;;;;;;;22.04;22.73;96688.75;6177715;28;102827;-44
2022/03/21 03:43:56;;;;;;;10.43;9.53;;;;;;;22.04;22.41;96686.09;6189697;28;103246;-43
2022/03/21 03:46:57;;;;;;;10.00;9.20;;;;;;;22.03;22.58;96684.50;6187240;28;103282;-43
2022/03/21 03:49:59;;;;;;;9.57;8.57;;;;;;;22.04;22.29;96686.09;6177468;28;103401;-43
2022/03/21 03:53:01;;;;;;;9.80;8.90;;;;;;;22.04;22.28;96680.78;6176608;28;103143;-43
2022/03/21 03:56:03;;;;;;;9.33;8.63;;;;;;;22.04;22.39;96686.09;6189332;28;103207;-43
2022/03/21 03:59:05;;;;;;;9.90;8.90;;;;;;;22.01;22.47;96686.63;6179757;28;103358;-43
2022/03/21 04:02:09;;;;;;;9.20;8.50;;;;;;;22.04;22.58;96683.44;6174541;28;103679;-43
2022/03/21 04:05:14;;;;;;;9.93;9.03;;;;;;;22.02;22.61;96682.88;6179971;28;103764;-43
2022/03/21 04:08:17;;;;;;;9.70;8.90;;;;;;;21.98;22.60;96671.13;6180034;28;103350;-42
2022/03/21 04:11:19;;;;;;;8.60;7.90;;;;;;;21.98;22.74;96669.28;6173717;28;103519;-42
2022/03/21 04:14:20;;;;;;;9.33;8.43;;;;;;;22.01;22.57;96670.66;6178307;28;102823;-42
2022/03/21 04:17:22;;;;;;;9.80;8.83;;;;;;;22.01;22.49;96668.78;6180035;28;103846;-43
2022/03/21 04:20:24;;;;;;;9.53;8.63;;;;;;;22.06;24.05;96676.81;6180664;28;102776;-43
2022/03/21 04:23:25;;;;;;;8.77;7.97;;;;;;;22.12;23.91;96674.97;6179484;28;103937;-43
2022/03/21 04:26:27;;;;;;;8.53;7.83;;;;;;;22.17;24.14;96677.66;6180502;28;103330;-43
2022/03/21 04:29:29;;;;;;;8.70;7.90;;;;;;;22.23;24.13;96678.50;6180390;28;104361;-44
2022/03/21 04:32:31;;;;;;;8.57;7.87;;;;;;;22.25;24.26;96677.16;6174722;28;103629;-44
2022/03/21 04:35:33;;;;;;;8.90;8.07;;;;;;;22.12;23.54;96683.75;6173796;28;103409;-42
2022/03/21 04:38:35;;;;;;;10.83;9.83;;;;;;;21.74;21.57;96684.03;6181818;28;103094;-41
2022/03/21 04:41:36;;;;;;;12.77;11.67;;;;;;;21.33;20.18;96686.41;6159009;28;103462;-42
2022/03/21 04:44:39;;;;;;;13.37;12.10;;;;;;;21.14;20.95;96677.16;6180109;28;103234;-43
2022/03/21 04:47:41;;;;;;;11.90;10.90;;;;;;;21.61;22.81;96685.28;6178976;28;103312;-44
2022/03/21 04:50:46;;;;;;;11.73;10.17;;;;;;;21.75;22.49;96675.00;6181096;28;103366;-43
2022/03/21 04:53:47;;;;;;;11.23;9.97;;;;;;;21.99;21.33;96683.38;6178246;28;104038;-43
2022/03/21 04:56:49;;;;;;;11.80;10.80;;;;;;;22.06;20.79;96689.31;6174111;28;104776;-43
2022/03/21 04:59:52;;;;;;;12.37;10.60;;;;;;;21.88;21.62;96680.69;6179416;28;103671;-43
2022/03/21 05:02:53;;;;;;;11.07;10.07;;;;;;;21.74;20.44;96690.16;6175001;28;103229;-44
2022/03/21 05:05:56;;;;;;;13.77;11.40;;;;;;;21.61;20.42;96687.94;6180603;28;105365;-44
2022/03/21 05:09:02;;;;;;;13.20;12.00;;;;;;;21.49;19.49;96689.97;6161375;28;104480;-43
2022/03/21 05:12:05;;;;;;;11.30;10.30;;;;;;;21.61;19.67;96696.72;6181313;28;103214;-48
2022/03/21 05:15:08;;;;;;;12.10;11.00;;;;;;;22.11;18.71;96692.81;6181664;28;102731;-43
2022/03/21 05:18:10;;;;;;;11.70;10.60;;;;;;;22.40;19.21;96687.88;6174904;28;103108;-44
2022/03/21 05:21:12;;;;;;;11.10;10.10;;;;;;;22.54;19.76;96701.53;6181194;28;103362;-44
2022/03/21 05:30:58;;;;;;;10.20;9.40;;;;;;;22.60;19.93;96703.13;6182234;28;102840;-44
2022/03/21 05:37:20;;;;;;;10.97;9.50;;;;;;;22.56;20.93;96698.59;6183003;28;103228;-42
2022/03/21 05:40:31;;;;;;;10.37;9.43;;;;;;;22.57;21.06;96706.31;6178968;28;103592;-42
2022/03/21 05:43:34;;;;;;;11.40;10.40;;;;;;;22.56;20.99;96698.59;6183243;28;103141;-42
2022/03/21 05:46:38;;;;;;;10.70;9.80;;;;;;;22.60;20.87;96694.34;6185402;28;103165;-42
2022/03/21 05:49:39;;;;;;;10.47;9.57;;;;;;;22.63;21.24;96691.16;6185806;28;103209;-43
2022/03/21 05:52:41;;;;;;;11.40;10.30;;;;;;;22.69;21.19;96698.91;6179994;28;102786;-43
2022/03/21 05:55:45;;;;;;;11.57;10.63;;;;;;;22.70;21.20;96694.38;6186053;28;102708;-43
2022/03/21 05:58:47;;;;;;;12.93;11.73;;;;;;;22.78;21.34;96697.31;6184587;28;103092;-44
2022/03/21 06:01:50;;;;;;;12.97;11.80;;;;;;;22.82;21.40;96694.94;6179949;28;102731;-44
2022/03/21 06:04:53;;;;;;;13.20;12.00;;;;;;;22.90;21.46;96696.31;6185469;28;102886;-44
2022/03/21 06:07:55;;;;;;;13.43;12.33;;;;;;;22.92;21.67;96687.00;6183685;28;102780;-44
2022/03/21 06:11:08;;;;;;;14.23;12.93;;;;;;;23.02;21.49;96696.88;6184346;28;103168;-44
2022/03/21 06:14:10;;;;;;;13.13;12.03;;;;;;;23.06;21.56;96701.41;6179692;28;104000;-44
2022/03/21 06:17:11;;;;;;;14.40;13.20;;;;;;;23.12;21.73;96707.53;6185497;28;103483;-42
2022/03/21 06:20:18;;;;;;;16.67;15.17;;;;;;;23.17;21.80;96706.75;6185359;28;103381;-44
2022/03/21 06:23:19;;;;;;;17.67;16.03;;;;;;;23.20;21.62;96707.03;6183472;28;103033;-43
2022/03/21 06:26:21;;;;;;;18.43;16.77;;;;;;;23.21;21.87;96697.16;6209715;28;102784;-42
2022/03/21 06:29:23;;;;;;;17.73;16.27;;;;;;;23.28;21.88;96701.16;6208240;28;102879;-42
2022/03/21 06:32:25;;;;;;;20.13;18.40;;;;;;;23.35;21.86;96703.59;6209564;28;102751;-42
2022/03/21 06:35:27;;;;;;;21.57;19.73;;;;;;;23.34;21.70;96696.63;6202814;28;103041;-43
2022/03/21 06:38:30;;;;;;;24.47;22.20;;;;;;;23.41;21.47;96702.50;6209030;28;102869;-44
2022/03/21 06:41:32;;;;;;;24.97;22.80;;;;;;;23.42;21.59;96696.09;6209645;28;102840;-44
2022/03/21 06:44:33;;;;;;;25.40;23.10;;;;;;;23.41;21.81;96689.16;6208814;28;102916;-43
2022/03/21 06:47:35;;;;;;;26.60;24.00;;;;;;;23.50;21.32;96692.09;6204165;28;103104;-42
2022/03/21 06:50:37;;;;;;;27.00;24.60;;;;;;;23.52;21.43;96695.31;6209153;28;102649;-45
2022/03/21 06:53:38;;;;;;;27.17;24.73;;;;;;;23.52;21.98;96701.44;6209249;28;102713;-43
2022/03/21 06:56:40;;;;;;;24.00;21.90;;;;;;;23.53;22.25;96692.38;6185574;28;102786;-43
2022/03/21 06:59:43;;;;;;;25.10;22.50;;;;;;;23.51;22.14;96699.81;6208692;28;103559;-43
2022/03/21 07:02:45;;;;;;;25.27;23.17;;;;;;;23.60;22.19;96698.25;6208440;28;102718;-44
2022/03/21 07:05:47;;;;;;;25.63;23.33;;;;;;;23.64;22.34;96701.97;6208884;28;103139;-43
2022/03/21 07:08:51;;;;;;;24.87;22.77;;;;;;;23.63;22.31;96695.03;6203318;28;103901;-43
2022/03/21 07:11:53;;;;;;;25.33;23.23;;;;;;;23.62;22.60;96689.97;6208693;28;103062;-44
2022/03/21 07:14:55;;;;;;;25.40;23.30;;;;;;;23.62;22.40;96690.78;6208566;28;103105;-44
2022/03/21 07:17:57;;;;;;;25.97;23.73;;;;;;;23.62;22.33;96684.66;6208844;28;103222;-44
2022/03/21 07:20:59;;;;;;;26.37;23.80;;;;;;;23.63;22.43;96684.38;6204262;28;103237;-44
2022/03/21 07:24:00;;;;;;;25.97;23.83;;;;;;;23.65;22.14;96687.56;6200126;28;103093;-45
2022/03/21 07:27:03;;;;;;;26.77;24.47;;;;;;;23.68;21.96;96684.38;6183806;28;102789;-42
2022/03/21 07:30:05;;;;;;;26.43;24.03;;;;;;;23.68;21.82;96687.06;6177980;28;102782;-43
2022/03/21 07:33:07;;;;;;;26.97;24.67;;;;;;;23.69;22.09;96682.50;6184219;28;103245;-43
2022/03/21 07:36:09;;;;;;;27.53;25.03;;;;;;;23.69;22.27;96677.97;6183173;28;102728;-43
2022/03/21 07:39:13;;;;;;;26.40;23.90;;;;;;;23.70;22.21;96681.44;6182768;28;103086;-42
2022/03/21 07:42:16;;;;;;;26.77;24.27;;;;;;;23.68;21.74;96667.53;6178151;28;102820;-44
2022/03/21 07:48:39;;;;;;;26.13;23.83;;;;;;;23.73;22.01;96669.44;6183643;28;102751;-43
2022/03/21 07:51:43;;;;;;;25.77;23.47;;;;;;;23.67;22.32;96656.06;6177922;28;103189;-43
2022/03/21 07:54:47;;;;;;;25.67;23.47;;;;;;;23.77;21.48;96660.59;6183507;28;102767;-43
2022/03/21 07:57:49;;;;;;;25.07;22.87;;;;;;;23.75;22.09;96664.63;6183576;28;103245;-43
2022/03/21 08:00:51;;;;;;;24.00;22.10;;;;;;;23.80;22.31;96664.59;6181811;28;103068;-43
2022/03/21 08:03:53;;;;;;;25.67;23.47;;;;;;;23.81;21.80;96648.31;6177350;28;102858;-43
2022/03/21 08:06:58;;;;;;;25.43;23.23;;;;;;;23.81;22.13;96650.19;6182781;28;102726;-43
2022/03/21 08:10:00;;;;;;;26.40;24.30;;;;;;;23.82;22.14;96647.25;6183435;28;103049;-43
2022/03/21 08:13:01;;;;;;;24.43;22.43;;;;;;;23.84;21.93;96649.63;6182157;28;102765;-43
2022/03/21 08:16:04;;;;;;;25.10;23.00;;;;;;;23.84;21.74;96646.97;6178785;28;103325;-43
2022/03/21 08:19:07;;;;;;;25.90;23.63;;;;;;;23.84;21.70;96654.97;6182502;28;103233;-43
2022/03/21 08:22:09;;;;;;;24.97;22.77;;;;;;;23.83;22.20;96653.38;6183596;28;103139;-43
2022/03/21 08:25:11;;;;;;;25.50;23.30;;;;;;;23.81;21.66;96639.50;6196489;28;103361;-43
2022/03/21 08:28:14;;;;;;;24.30;22.30;;;;;;;23.85;21.90;96653.91;6207215;28;102719;-43
2022/03/21 08:31:16;;;;;;;24.53;22.57;;;;;;;23.86;21.71;96652.84;6206434;28;102850;-43
2022/03/21 08:34:18;;;;;;;25.00;22.87;;;;;;;23.86;21.65;96652.84;6206582;28;102692;-43
2022/03/21 08:37:21;;;;;;;24.83;22.53;;;;;;;23.82;22.23;96641.09;6201344;28;102816;-44
2022/03/21 08:40:23;;;;;;;23.40;21.50;;;;;;;23.82;22.04;96643.78;6207082;28;102787;-43
2022/03/21 08:43:25;;;;;;;23.47;21.40;;;;;;;23.79;21.87;96641.66;6206805;28;102843;-43
2022/03/21 08:46:27;;;;;;;23.43;21.50;;;;;;;23.69;22.35;96632.63;6202007;28;103289;-43
2022/03/21 08:49:33;;;;;;;23.57;21.37;;;;;;;23.74;22.27;96631.00;6206323;28;102874;-44
2022/03/21 08:52:36;;;;;;;24.30;22.20;;;;;;;23.68;21.96;96630.19;6207367;28;102844;-43
2022/03/21 08:55:38;;;;;;;24.13;22.10;;;;;;;23.56;22.48;96627.78;6206680;28;103227;-44
2022/03/21 08:58:40;;;;;;;24.00;22.00;;;;;;;23.46;22.33;96633.13;6202820;28;103317;-44
2022/03/21 09:01:46;;;;;;;23.47;21.50;;;;;;;23.41;22.93;96630.47;6210505;28;103147;-43
2022/03/21 09:04:48;;;;;;;24.50;22.50;;;;;;;23.45;22.70;96625.41;6210398;28;102751;-43
2022/03/21 09:07:49;;;;;;;24.00;21.90;;;;;;;23.47;22.38;96618.72;6211121;28;102950;-43
2022/03/21 09:10:52;;;;;;;23.90;21.87;;;;;;;23.41;22.17;96615.28;6205059;28;102848;-43
2022/03/21 09:13:54;;;;;;;24.57;22.57;;;;;;;23.52;22.59;96620.59;6211623;28;103300;-43
2022/03/21 09:16:56;;;;;;;25.00;22.90;;;;;;;23.56;22.26;96622.47;6211007;28;102914;-44
2022/03/21 09:19:58;;;;;;;26.60;24.40;;;;;;;23.49;22.16;96616.59;6205247;28;102781;-43
2022/03/21 09:23:00;;;;;;;24.77;22.77;;;;;;;23.42;22.68;96624.88;6210824;28;102715;-43
2022/03/21 09:26:04;;;;;;;26.03;23.83;;;;;;;23.37;22.20;96621.44;6187262;28;103715;-44
2022/03/21 09:29:06;;;;;;;25.50;23.40;;;;;;;23.40;22.65;96619.00;6186285;28;102727;-43
2022/03/21 09:32:08;;;;;;;26.50;24.10;;;;;;;23.32;23.00;96616.06;6179874;28;103316;-43
2022/03/21 09:35:10;;;;;;;25.60;23.40;;;;;;;23.36;22.57;96617.97;6185199;28;102963;-44
2022/03/21 09:38:17;;;;;;;25.73;23.63;;;;;;;23.33;22.65;96612.34;6184999;28;102807;-43
2022/03/21 09:41:26;;;;;;;25.57;23.47;;;;;;;23.28;23.15;96615.81;6180510;28;102720;-44
2022/03/21 09:44:28;;;;;;;24.60;22.60;;;;;;;23.37;23.04;96610.75;6185427;28;103084;-43
2022/03/21 09:50:52;;;;;;;27.30;25.10;;;;;;;23.33;23.53;96604.34;6185899;28;102754;-41
2022/03/21 09:53:55;;;;;;;24.47;22.37;;;;;;;23.37;23.04;96614.22;6180274;28;103753;-42
2022/03/21 09:56:57;;;;;;;23.87;21.87;;;;;;;23.37;22.94;96614.22;6185082;28;103049;-42
2022/03/21 09:59:59;;;;;;;24.10;22.10;;;;;;;23.35;23.20;96602.22;6185242;28;103096;-41
2022/03/21 10:03:01;;;;;;;23.23;21.33;;;;;;;23.38;22.91;96605.16;6184462;28;103044;-42
2022/03/21 10:06:30;;;;;;;22.97;20.97;;;;;;;23.44;22.59;96597.13;6179815;28;102816;-42
2022/03/21 10:09:32;;;;;;;23.13;21.10;;;;;;;23.46;22.48;96598.47;6184207;28;102687;-42
2022/03/21 10:12:34;;;;;;;21.70;19.87;;;;;;;23.41;22.65;96601.16;6184951;28;102735;-42
2022/03/21 10:15:37;;;;;;;21.70;19.80;;;;;;;23.36;22.89;96590.50;6161191;28;102909;-42
2022/03/21 10:18:54;;;;;;;22.33;20.40;;;;;;;23.37;22.89;96589.41;6183870;28;102731;-42
2022/03/21 10:22:02;;;;;;;22.00;20.20;;;;;;;23.31;22.57;96593.94;6185395;28;102867;-41
2022/03/21 10:25:07;;;;;;;20.57;18.77;;;;;;;23.29;22.91;96589.94;6184958;28;102763;-42
2022/03/21 10:28:10;;;;;;;20.80;19.10;;;;;;;23.30;22.84;96578.22;6179299;28;102911;-42
2022/03/21 10:31:12;;;;;;;20.67;18.87;;;;;;;23.24;22.87;96581.97;6185037;28;102704;-42
2022/03/21 10:34:16;;;;;;;20.83;19.03;;;;;;;23.18;22.58;96583.03;6184245;28;103223;-42
2022/03/21 10:37:18;;;;;;;20.40;18.70;;;;;;;23.20;22.37;96596.91;6160327;28;102846;-41
2022/03/21 10:40:30;;;;;;;19.53;17.93;;;;;;;23.22;22.88;96578.78;6184399;28;102850;-42
2022/03/21 10:43:32;;;;;;;19.23;17.63;;;;;;;23.23;22.88;96575.03;6184754;28;103239;-42
2022/03/21 10:46:35;;;;;;;19.67;18.07;;;;;;;23.23;22.87;96567.84;6184415;28;103282;-42
2022/03/21 10:49:43;;;;;;;19.40;17.70;;;;;;;23.25;22.34;96563.03;6178387;28;102820;-41
2022/03/21 10:53:03;;;;;;;19.77;18.03;;;;;;;23.23;22.25;96559.03;6185623;28;103366;-42
2022/03/21 10:56:10;;;;;;;18.10;16.60;;;;;;;23.25;22.46;96562.22;6184907;28;102937;-42
2022/03/21 10:59:16;;;;;;;18.20;16.67;;;;;;;23.21;22.37;96545.19;6179329;28;103157;-42
2022/03/21 11:02:19;;;;;;;17.87;16.23;;;;;;;23.25;22.66;96557.69;6184632;28;103411;-42
2022/03/21 11:05:22;;;;;;;16.63;15.23;;;;;;;23.27;22.52;96546.75;6184138;28;103183;-41
2022/03/21 11:08:24;;;;;;;17.00;15.53;;;;;;;23.24;22.61;96545.44;6184709;28;103280;-41
2022/03/21 11:11:26;;;;;;;17.20;15.80;;;;;;;23.20;22.71;96532.91;6178342;28;103322;-42
2022/03/21 11:14:29;;;;;;;16.77;15.20;;;;;;;23.23;22.52;96540.38;6166421;28;102897;-42
2022/03/21 11:17:33;;;;;;;17.33;15.80;;;;;;;23.25;22.55;96535.56;6184182;28;103310;-41
2022/03/21 11:20:35;;;;;;;15.73;14.47;;;;;;;23.24;22.33;96523.31;6179006;28;103241;-42
2022/03/21 11:23:37;;;;;;;16.83;15.37;;;;;;;23.20;22.53;96517.72;6171556;28;102769;-42
2022/03/21 11:26:56;;;;;;;16.17;14.87;;;;;;;23.21;22.39;96513.19;6209819;28;103341;-41
2022/03/21 11:30:15;;;;;;;16.00;14.73;;;;;;;23.21;22.18;96521.97;6208058;28;102764;-41
2022/03/21 11:33:56;;;;;;;16.00;14.60;;;;;;;23.17;22.37;96523.56;6202605;28;102885;-41
2022/03/21 11:36:58;;;;;;;14.90;13.60;;;;;;;23.11;22.65;96506.78;6207380;28;103330;-41
2022/03/21 11:40:26;;;;;;;15.43;14.13;;;;;;;23.17;22.37;96501.44;6208138;28;102837;-41
2022/03/21 11:43:29;;;;;;;14.63;13.43;;;;;;;23.18;22.23;96503.84;6202308;28;102879;-40
2022/03/21 11:46:38;;;;;;;14.53;13.33;;;;;;;23.15;22.41;96499.03;6207540;28;102734;-41
2022/03/21 11:49:40;;;;;;;14.50;13.20;;;;;;;23.14;22.55;96486.78;6208663;28;103143;-41
2022/03/21 11:53:04;;;;;;;15.10;13.90;;;;;;;23.13;22.57;96489.72;6208424;28;103011;-42
2022/03/21 11:56:06;;;;;;;14.47;13.30;;;;;;;23.12;22.24;96483.59;6202056;28;103164;-41
2022/03/21 11:59:32;;;;;;;14.70;13.50;;;;;;;23.13;22.21;96485.19;6207757;28;102742;-42
2022/03/21 12:02:37;;;;;;;14.10;12.87;;;;;;;23.12;22.39;96478.25;6207630;28;102780;-41
2022/03/21 12:05:40;;;;;;;14.80;13.60;;;;;;;23.08;22.63;96464.69;6203671;28;104114;-42
2022/03/21 12:08:54;;;;;;;13.63;12.50;;;;;;;23.07;22.24;96475.59;6207289;28;103995;-41
2022/03/21 12:11:58;;;;;;;13.13;11.97;;;;;;;23.06;22.44;96474.00;6208068;28;103243;-41
2022/03/21 12:15:14;;;;;;;13.70;12.50;;;;;;;23.04;22.29;96478.81;6207737;28;102827;-42
2022/03/21 12:18:15;;;;;;;13.57;12.47;;;;;;;23.02;22.44;96484.44;6203359;28;103751;-42
2022/03/21 12:21:17;;;;;;;13.97;12.87;;;;;;;23.01;22.75;96472.16;6207544;28;103055;-42
2022/03/21 12:24:19;;;;;;;12.47;11.50;;;;;;;22.94;22.63;96458.31;6195231;28;102731;-43
2022/03/21 12:27:34;;;;;;;12.57;11.47;;;;;;;22.91;22.51;96456.19;6176952;28;102781;-41
2022/03/21 12:30:37;;;;;;;12.40;11.33;;;;;;;22.96;22.38;96474.03;6183113;28;103222;-42
2022/03/21 12:33:38;;;;;;;12.43;11.43;;;;;;;22.93;22.66;96470.03;6181852;28;102726;-42
2022/03/21 12:36:40;;;;;;;12.33;11.33;;;;;;;22.85;22.54;96446.63;6181836;28;102821;-42
2022/03/21 12:39:47;;;;;;;12.40;11.40;;;;;;;22.91;22.37;96458.84;6176090;28;103344;-42
2022/03/21 12:42:48;;;;;;;11.90;11.00;;;;;;;22.89;22.47;96453.00;6182618;28;103213;-42
2022/03/21 12:46:14;;;;;;;12.63;11.63;;;;;;;22.89;22.40;96455.66;6182353;28;103317;-42
2022/03/21 12:49:15;;;;;;;11.90;10.90;;;;;;;22.87;22.34;96444.47;6177451;28;103907;-43
2022/03/21 12:52:31;;;;;;;11.53;10.53;;;;;;;22.82;22.54;96441.78;6183247;28;103231;-42
2022/03/21 12:55:34;;;;;;;11.70;10.70;;;;;;;22.86;22.32;96450.06;6182187;28;102760;-42
2022/03/21 12:58:42;;;;;;;10.90;10.00;;;;;;;22.85;22.53;96445.81;6182382;28;102747;-42
2022/03/21 13:01:45;;;;;;;12.07;11.17;;;;;;;22.84;22.13;96434.31;6176967;28;102723;-42
2022/03/21 13:11:57;;;;;;;11.90;10.90;;;;;;;22.97;22.87;96428.44;6176027;28;103490;-42
2022/03/21 13:15:07;;;;;;;11.50;10.60;;;;;;;23.00;22.80;96427.09;6181785;28;102750;-42
2022/03/21 13:18:10;;;;;;;13.50;12.30;;;;;;;23.02;23.28;96436.44;6182294;28;102710;-42
2022/03/21 13:21:12;;;;;;;12.23;11.00;;;;;;;22.97;22.61;96436.44;6164106;28;102833;-41
2022/03/21 13:24:14;;;;;;;11.87;10.97;;;;;;;22.85;22.86;96425.28;6166378;28;103837;-42
2022/03/21 13:27:17;;;;;;;12.17;11.13;;;;;;;22.92;22.53;96435.66;6157340;28;102805;-42
2022/03/21 13:30:19;;;;;;;10.67;9.83;;;;;;;22.87;22.86;96427.69;6156788;28;102741;-41
2022/03/21 13:33:23;;;;;;;10.87;9.97;;;;;;;22.79;22.63;96411.13;6151869;28;102786;-42
2022/03/21 13:36:26;;;;;;;11.20;10.30;;;;;;;22.86;22.89;96421.56;6157165;28;102872;-42
2022/03/21 13:39:30;;;;;;;11.43;10.53;;;;;;;22.83;22.46;96422.06;6156584;28;102735;-42
2022/03/21 13:42:33;;;;;;;11.87;10.87;;;;;;;22.81;22.89;96424.19;6156185;28;102683;-42
2022/03/21 13:45:42;;;;;;;11.03;10.23;;;;;;;22.84;23.00;96430.88;6154112;28;103113;-43
2022/03/21 13:48:44;;;;;;;10.37;9.57;;;;;;;22.82;22.70;96431.13;6161506;28;102749;-42
2022/03/21 13:51:46;;;;;;;11.30;10.30;;;;;;;22.75;22.71;96418.06;6161018;28;103556;-42
2022/03/21 13:54:53;;;;;;;9.80;9.00;;;;;;;22.79;22.65;96427.13;6156108;28;103124;-42
2022/03/21 13:57:58;;;;;;;10.27;9.47;;;;;;;22.73;23.04;96422.88;6161011;28;102717;-42
2022/03/21 14:01:00;;;;;;;9.80;9.10;;;;;;;22.76;22.63;96422.34;6160510;28;102814;-42
2022/03/21 14:04:25;;;;;;;9.57;8.87;;;;;;;22.75;22.72;96415.41;6161451;28;102681;-42
2022/03/21 14:07:32;;;;;;;9.80;8.97;;;;;;;22.72;22.81;96415.94;6155168;28;103297;-43
2022/03/21 14:10:38;;;;;;;9.87;9.07;;;;;;;22.74;22.64;96423.69;6160220;28;102742;-42
2022/03/21 14:13:41;;;;;;;9.30;8.50;;;;;;;22.71;22.32;96419.69;6160078;28;102710;-42
2022/03/21 14:16:43;;;;;;;9.90;9.10;;;;;;;22.71;22.86;96421.56;6155679;28;103361;-42
2022/03/21 14:19:48;;;;;;;9.63;8.93;;;;;;;22.70;22.74;96420.75;6160020;28;102924;-42
2022/03/21 14:22:50;;;;;;;9.13;8.43;;;;;;;22.70;22.73;96419.97;6160216;28;103161;-42
2022/03/21 14:29:14;;;;;;;10.47;9.67;;;;;;;22.67;22.73;96415.16;6179430;28;102666;-42